Time;durP1;ratioP1;P1;durP2;ratioP2;P2;SDS_P1;SDS_P2;PMS_P1;PMS_P2;Temp;Humidity;BMP_temperature;BMP_pressure;BME280_temperature;BME280_humidity;BME280_pressure;Samples;Min_cycle;Max_cycle;Signal;HPM_P1;HPM_P2
2022/01/08 00:01:43;;;;;;;3.38;0.60;;;6.80;59.30;;;;;;4978524;28;20030;-60
2022/01/08 00:04:09;;;;;;;2.45;0.57;;;6.80;59.40;;;;;;4982999;28;20390;-57
2022/01/08 00:06:35;;;;;;;2.47;0.55;;;6.70;59.40;;;;;;4981666;28;20026;-57
2022/01/08 00:09:01;;;;;;;1.10;0.47;;;6.70;59.50;;;;;;4961492;28;20041;-60
2022/01/08 00:11:28;;;;;;;3.67;0.70;;;6.70;59.60;;;;;;4976789;28;20038;-57
2022/01/08 00:13:54;;;;;;;2.65;0.40;;;6.70;59.70;;;;;;4981102;28;20034;-58
2022/01/08 00:16:21;;;;;;;3.28;0.60;;;6.70;59.80;;;;;;4977897;28;20038;-59
2022/01/08 00:18:47;;;;;;;2.90;0.60;;;6.70;59.90;;;;;;4977804;28;20023;-59
2022/01/08 00:21:13;;;;;;;2.00;0.60;;;6.70;59.90;;;;;;4983036;28;20034;-58
2022/01/08 00:23:40;;;;;;;3.70;0.60;;;6.70;60.00;;;;;;4979355;28;20399;-58
2022/01/08 00:26:06;;;;;;;3.55;0.70;;;6.70;60.00;;;;;;4976261;28;20051;-57
2022/01/08 00:28:33;;;;;;;2.92;0.73;;;6.60;60.00;;;;;;4973242;28;20030;-60
2022/01/08 00:30:59;;;;;;;4.35;0.70;;;6.60;60.00;;;;;;4977159;28;20042;-59
2022/01/08 00:33:25;;;;;;;2.97;0.95;;;6.60;60.10;;;;;;4978223;28;20041;-59
2022/01/08 00:35:51;;;;;;;2.90;0.60;;;6.60;60.10;;;;;;4980753;28;20448;-59
2022/01/08 00:38:17;;;;;;;1.27;0.60;;;6.60;60.20;;;;;;4976730;28;20043;-60
2022/01/08 00:40:44;;;;;;;1.92;0.55;;;6.60;60.20;;;;;;4979818;28;20033;-60
2022/01/08 00:43:10;;;;;;;1.95;0.70;;;6.60;60.10;;;;;;4963480;28;20053;-57
2022/01/08 00:45:36;;;;;;;3.05;0.80;;;6.60;60.20;;;;;;4981019;28;20037;-58
2022/01/08 00:48:02;;;;;;;1.48;0.77;;;6.60;60.20;;;;;;4974717;28;20434;-57
2022/01/08 00:50:29;;;;;;;2.10;0.50;;;6.60;60.20;;;;;;4978534;28;20358;-60
2022/01/08 00:52:55;;;;;;;1.50;0.73;;;6.60;60.30;;;;;;4980302;28;20015;-59
2022/01/08 00:55:21;;;;;;;1.52;0.70;;;6.60;60.20;;;;;;4980040;28;20034;-60
2022/01/08 00:57:47;;;;;;;1.58;0.60;;;6.60;60.30;;;;;;4961677;28;20039;-57
2022/01/08 01:00:14;;;;;;;1.35;0.40;;;6.60;60.40;;;;;;4974184;28;20030;-60
2022/01/08 01:02:41;;;;;;;2.65;0.65;;;6.60;60.40;;;;;;4976935;28;20038;-60
2022/01/08 01:05:08;;;;;;;1.45;0.52;;;6.60;60.40;;;;;;4980381;28;21271;-60
2022/01/08 01:07:35;;;;;;;1.67;0.80;;;6.60;60.50;;;;;;4977290;28;20018;-60
2022/01/08 01:10:03;;;;;;;2.10;0.47;;;6.60;60.60;;;;;;4978215;28;20693;-60
2022/01/08 01:12:29;;;;;;;1.63;0.80;;;6.60;60.60;;;;;;4976398;28;20026;-58
2022/01/08 01:14:55;;;;;;;2.92;0.68;;;6.60;60.60;;;;;;4964701;28;20019;-60
2022/01/08 01:17:21;;;;;;;3.22;0.60;;;6.60;60.60;;;;;;4974123;28;20026;-60
2022/01/08 01:19:49;;;;;;;1.65;0.57;;;6.60;60.60;;;;;;4980994;28;20030;-59
2022/01/08 01:22:18;;;;;;;4.95;0.82;;;6.50;60.50;;;;;;4978882;28;20493;-60
2022/01/08 01:24:46;;;;;;;0.90;0.50;;;6.50;60.60;;;;;;4978378;28;20019;-58
2022/01/08 01:28:00;;;;;;;2.35;0.50;;;6.50;60.70;;;;;;4961434;28;20039;-58
2022/01/08 01:48:56;;;;;;;1.90;0.70;;;6.50;60.70;;;;;;4976179;28;20041;-58
2022/01/08 01:51:23;;;;;;;0.95;0.68;;;6.50;60.60;;;;;;4975245;28;20038;-60
2022/01/08 01:53:51;;;;;;;4.45;0.50;;;6.50;60.70;;;;;;4978105;28;20887;-60
2022/01/08 01:56:18;;;;;;;1.45;0.80;;;6.50;60.80;;;;;;4977658;28;20398;-60
2022/01/08 01:58:46;;;;;;;2.97;0.80;;;6.40;60.90;;;;;;4973780;28;20027;-60
2022/01/08 02:01:12;;;;;;;3.05;0.65;;;6.40;61.10;;;;;;4979303;28;20036;-60
2022/01/08 02:03:39;;;;;;;3.05;0.70;;;6.40;61.00;;;;;;4978783;28;20023;-60
2022/01/08 02:06:06;;;;;;;4.50;1.10;;;6.40;61.10;;;;;;4979253;28;20037;-60
2022/01/08 02:08:34;;;;;;;2.25;0.90;;;6.40;61.10;;;;;;4967663;28;20035;-60
2022/01/08 02:11:00;;;;;;;1.17;0.60;;;6.40;61.30;;;;;;4977225;28;20113;-58
2022/01/08 02:13:28;;;;;;;1.75;0.90;;;6.40;61.30;;;;;;4980156;28;20399;-60
2022/01/08 02:15:55;;;;;;;2.20;0.95;;;6.40;61.40;;;;;;4977998;28;20026;-60
2022/01/08 02:18:25;;;;;;;4.95;1.02;;;6.30;61.40;;;;;;4972368;28;20098;-60
2022/01/08 02:20:53;;;;;;;7.32;1.25;;;6.30;61.60;;;;;;4979036;28;20543;-57
2022/01/08 02:23:19;;;;;;;3.03;1.02;;;6.40;61.80;;;;;;4962995;28;20046;-59
2022/01/08 02:25:45;;;;;;;6.10;1.27;;;6.40;61.70;;;;;;4981071;28;20045;-58
2022/01/08 02:28:12;;;;;;;3.45;1.52;;;6.40;61.60;;;;;;4973605;28;20045;-60
2022/01/08 02:30:38;;;;;;;3.67;1.35;;;6.40;61.50;;;;;;4971687;28;20179;-58
2022/01/08 02:33:04;;;;;;;3.75;1.60;;;6.40;62.20;;;;;;4978312;28;20049;-57
2022/01/08 02:35:31;;;;;;;3.72;1.63;;;6.40;61.60;;;;;;4979127;28;20037;-60
2022/01/08 02:37:57;;;;;;;4.32;1.77;;;6.40;61.70;;;;;;4970233;28;20052;-60
2022/01/08 02:40:24;;;;;;;4.70;2.13;;;6.40;61.70;;;;;;4972735;28;20035;-58
2022/01/08 02:43:00;;;;;;;3.40;1.80;;;6.40;61.60;;;;;;4978999;28;20030;-60
2022/01/08 02:45:27;;;;;;;6.30;2.15;;;6.40;61.50;;;;;;4976565;28;20397;-60
2022/01/08 02:47:55;;;;;;;5.82;2.28;;;6.40;61.60;;;;;;4971701;28;20844;-60
2022/01/08 02:50:21;;;;;;;5.47;2.50;;;6.40;61.80;;;;;;4977293;28;20491;-60
2022/01/08 02:52:48;;;;;;;7.93;3.13;;;6.30;61.80;;;;;;4978214;28;20542;-60
2022/01/08 02:55:18;;;;;;;5.93;2.75;;;6.40;61.90;;;;;;4978742;28;20037;-60
2022/01/08 02:57:44;;;;;;;7.10;2.83;;;6.40;61.90;;;;;;4973915;28;20030;-60
2022/01/08 03:00:13;;;;;;;8.15;3.65;;;6.40;61.90;;;;;;4971333;28;20030;-58
2022/01/08 03:02:44;;;;;;;6.60;3.95;;;6.40;61.90;;;;;;4975708;28;20400;-60
2022/01/08 03:05:12;;;;;;;9.75;3.97;;;6.40;61.80;;;;;;4975526;28;20034;-58
2022/01/08 03:07:39;;;;;;;6.80;3.53;;;6.30;61.70;;;;;;4958043;28;20046;-60
2022/01/08 03:10:08;;;;;;;7.32;3.00;;;6.40;61.70;;;;;;4977759;28;20034;-58
2022/01/08 03:12:38;;;;;;;6.72;2.70;;;6.40;61.70;;;;;;4973307;28;20038;-59
2022/01/08 03:15:06;;;;;;;7.40;2.65;;;6.40;61.70;;;;;;4959938;28;20612;-59
2022/01/08 03:17:35;;;;;;;4.80;2.45;;;6.40;61.70;;;;;;4972228;28;20027;-58
2022/01/08 03:20:05;;;;;;;13.35;4.85;;;6.40;61.70;;;;;;4975742;28;20541;-60
2022/01/08 03:22:33;;;;;;;7.35;2.67;;;6.30;62.40;;;;;;4977283;28;20452;-57
2022/01/08 03:25:00;;;;;;;8.98;2.97;;;6.30;61.70;;;;;;4979463;28;20479;-57
2022/01/08 03:27:27;;;;;;;6.30;2.75;;;6.30;61.70;;;;;;4973453;28;20041;-59
2022/01/08 03:29:53;;;;;;;4.97;2.70;;;6.30;61.70;;;;;;4976891;28;20038;-58
2022/01/08 03:32:20;;;;;;;7.90;3.20;;;6.30;61.80;;;;;;4973985;28;20459;-60
2022/01/08 03:34:46;;;;;;;10.95;3.05;;;6.30;61.70;;;;;;4979257;28;20034;-59
2022/01/08 03:37:13;;;;;;;9.57;3.83;;;6.30;61.80;;;;;;4972241;28;20584;-59
2022/01/08 03:39:40;;;;;;;7.30;2.95;;;6.30;61.90;;;;;;4970369;28;20061;-60
2022/01/08 03:42:06;;;;;;;6.72;3.67;;;6.30;62.00;;;;;;4962357;28;21143;-59
2022/01/08 03:44:32;;;;;;;7.70;3.47;;;6.30;62.00;;;;;;4978532;28;20030;-60
2022/01/08 03:47:21;;;;;;;9.80;3.92;;;6.30;62.10;;;;;;4970436;28;20409;-60
2022/01/08 03:49:45;;;;;;;7.50;3.33;;;6.20;62.90;;;;;;4979414;28;20030;-58
2022/01/08 03:52:12;;;;;;;11.38;4.95;;;6.20;62.30;;;;;;4972307;28;20042;-60
2022/01/08 03:54:39;;;;;;;10.15;3.92;;;6.20;62.50;;;;;;4978935;28;20018;-60
2022/01/08 03:57:06;;;;;;;12.38;4.40;;;6.20;62.60;;;;;;4975765;28;20031;-60
2022/01/08 03:59:33;;;;;;;13.00;4.28;;;6.20;62.70;;;;;;4977465;28;20516;-60
2022/01/08 04:01:59;;;;;;;10.88;4.65;;;6.20;62.80;;;;;;4975084;28;20485;-60
2022/01/08 04:04:26;;;;;;;8.93;4.65;;;6.10;62.90;;;;;;4976847;28;20034;-58
2022/01/08 04:06:52;;;;;;;10.65;4.63;;;6.10;63.00;;;;;;4976411;28;20031;-60
2022/01/08 04:09:19;;;;;;;12.95;4.68;;;6.20;63.20;;;;;;4971817;28;20097;-58
2022/01/08 04:11:45;;;;;;;11.80;4.45;;;6.10;63.20;;;;;;4973349;28;20043;-57
2022/01/08 04:14:13;;;;;;;14.30;4.82;;;6.10;63.20;;;;;;4971484;28;20502;-57
2022/01/08 04:16:43;;;;;;;14.63;4.60;;;6.10;63.30;;;;;;4975843;28;20056;-59
2022/01/08 04:19:10;;;;;;;22.70;5.93;;;6.10;63.30;;;;;;4970678;28;20027;-60
2022/01/08 04:22:23;;;;;;;17.60;6.03;;;6.10;63.30;;;;;;4978747;28;20037;-59
2022/01/08 04:24:22;;;;;;;16.20;6.22;;;6.10;63.30;;;;;;4968116;28;20038;-60
2022/01/08 04:26:48;;;;;;;9.95;5.72;;;6.10;63.30;;;;;;4976911;28;20030;-60
2022/01/08 04:29:15;;;;;;;14.32;6.28;;;6.10;63.30;;;;;;4971881;28;20034;-60
2022/01/08 04:31:41;;;;;;;14.13;6.55;;;6.10;63.40;;;;;;4973598;28;20509;-58
2022/01/08 04:34:07;;;;;;;15.50;7.75;;;6.10;63.40;;;;;;4975035;28;20502;-59
2022/01/08 04:36:33;;;;;;;19.58;7.75;;;6.10;63.50;;;;;;4947600;28;20556;-60
2022/01/08 04:38:59;;;;;;;18.67;7.97;;;6.10;63.40;;;;;;4974949;28;20487;-59
2022/01/08 04:41:25;;;;;;;17.65;7.90;;;6.10;63.40;;;;;;4982163;28;20034;-60
2022/01/08 04:43:52;;;;;;;20.08;8.77;;;6.10;63.40;;;;;;4980566;28;20045;-58
2022/01/08 04:46:18;;;;;;;16.55;9.00;;;6.10;63.30;;;;;;4978223;28;20368;-59
2022/01/08 04:48:44;;;;;;;17.23;9.25;;;6.10;63.30;;;;;;4975243;28;20364;-58
2022/01/08 04:51:11;;;;;;;27.83;10.65;;;6.10;63.30;;;;;;4974009;28;20390;-59
2022/01/08 04:53:37;;;;;;;23.13;12.52;;;6.10;63.30;;;;;;4978409;28;20399;-60
2022/01/08 04:56:03;;;;;;;30.55;13.68;;;6.10;63.20;;;;;;4979723;28;20034;-59
2022/01/08 04:58:29;;;;;;;20.65;12.48;;;6.10;63.10;;;;;;4977533;28;20050;-57
2022/01/08 05:00:56;;;;;;;24.70;12.88;;;6.10;63.00;;;;;;4978160;28;20038;-57
2022/01/08 05:03:22;;;;;;;26.77;12.60;;;6.00;62.80;;;;;;4976113;28;20392;-60
2022/01/08 05:05:48;;;;;;;23.45;12.52;;;6.00;62.80;;;;;;4979977;28;20018;-59
2022/01/08 05:08:15;;;;;;;26.25;12.73;;;6.00;63.00;;;;;;4977335;28;20030;-59
2022/01/08 05:10:41;;;;;;;23.95;12.00;;;6.00;63.00;;;;;;4975598;28;20021;-58
2022/01/08 05:13:07;;;;;;;25.27;12.48;;;5.90;62.80;;;;;;4978929;28;20514;-59
2022/01/08 05:15:34;;;;;;;22.38;11.55;;;5.90;62.90;;;;;;4957607;28;20026;-59
2022/01/08 05:18:01;;;;;;;24.13;10.95;;;5.90;63.00;;;;;;4964465;28;20411;-57
2022/01/08 05:20:32;;;;;;;26.75;11.73;;;5.80;63.10;;;;;;4978002;28;20034;-57
2022/01/08 05:23:01;;;;;;;22.98;11.70;;;5.80;63.20;;;;;;4979749;28;20049;-60
2022/01/08 05:25:29;;;;;;;25.38;12.75;;;5.90;63.40;;;;;;4979641;28;20031;-57
2022/01/08 05:27:56;;;;;;;28.55;12.02;;;5.80;63.40;;;;;;4960622;28;20027;-59
2022/01/08 05:30:23;;;;;;;23.48;12.55;;;5.80;63.50;;;;;;4976693;28;20030;-59
2022/01/08 05:32:51;;;;;;;24.10;11.55;;;5.80;63.50;;;;;;4977849;28;20038;-59
2022/01/08 05:35:17;;;;;;;26.20;12.52;;;5.80;63.50;;;;;;4981656;28;20027;-60
2022/01/08 05:37:43;;;;;;;28.90;13.40;;;5.90;63.50;;;;;;4976839;28;20050;-57
2022/01/08 05:40:11;;;;;;;23.75;11.95;;;5.90;63.40;;;;;;4979543;28;20029;-59
2022/01/08 05:42:38;;;;;;;22.65;12.02;;;5.80;63.20;;;;;;4979394;28;20030;-59
2022/01/08 05:45:04;;;;;;;26.20;13.05;;;5.80;63.10;;;;;;4976646;28;20035;-59
2022/01/08 05:47:32;;;;;;;31.75;13.52;;;5.80;63.10;;;;;;4973684;28;20043;-58
2022/01/08 05:49:59;;;;;;;22.55;12.50;;;5.70;63.00;;;;;;4980061;28;20417;-59
2022/01/08 05:52:26;;;;;;;26.65;12.77;;;5.70;63.00;;;;;;4973450;28;20034;-59
2022/01/08 05:54:52;;;;;;;23.40;12.75;;;5.70;63.00;;;;;;4978160;28;20018;-59
2022/01/08 05:57:19;;;;;;;26.35;13.65;;;5.60;63.10;;;;;;4976870;28;20324;-58
2022/01/08 05:59:45;;;;;;;26.77;13.95;;;5.70;63.20;;;;;;4978654;28;20054;-54
2022/01/08 06:02:11;;;;;;;24.10;13.43;;;5.60;63.20;;;;;;4977593;28;20318;-57
2022/01/08 06:04:37;;;;;;;36.65;15.10;;;5.60;63.20;;;;;;4981236;28;20030;-58
2022/01/08 06:07:04;;;;;;;27.45;14.27;;;5.60;63.10;;;;;;4976856;28;20517;-59
2022/01/08 06:09:31;;;;;;;31.08;15.23;;;5.60;63.20;;;;;;4967549;28;20031;-59
2022/01/08 06:11:57;;;;;;;29.08;15.25;;;5.60;63.80;;;;;;4971925;28;20039;-59
2022/01/08 06:14:23;;;;;;;31.67;16.60;;;5.60;63.20;;;;;;4960353;28;20046;-59
2022/01/08 06:16:49;;;;;;;46.17;22.38;;;5.60;63.20;;;;;;4971107;28;20038;-60
2022/01/08 06:19:16;;;;;;;138.52;52.22;;;5.50;63.10;;;;;;4973533;28;20037;-57
2022/01/08 06:21:43;;;;;;;76.88;31.05;;;5.50;63.10;;;;;;4978220;28;20031;-59
2022/01/08 06:24:09;;;;;;;38.78;19.10;;;5.50;63.00;;;;;;4975123;28;21711;-58
2022/01/08 06:26:36;;;;;;;35.38;17.77;;;5.50;63.60;;;;;;4970285;28;20042;-59
2022/01/08 06:29:03;;;;;;;47.45;20.50;;;5.40;63.00;;;;;;4970654;28;20045;-59
2022/01/08 06:31:29;;;;;;;49.58;21.00;;;5.40;62.90;;;;;;4972547;28;20043;-59
2022/01/08 06:33:56;;;;;;;32.83;14.93;;;5.40;62.90;;;;;;4975159;28;20038;-57
2022/01/08 06:36:23;;;;;;;31.40;15.93;;;5.40;63.00;;;;;;4978175;28;20499;-57
2022/01/08 06:38:50;;;;;;;34.97;16.88;;;5.40;63.00;;;;;;4977509;28;20495;-59
2022/01/08 06:41:17;;;;;;;34.00;14.98;;;5.30;63.00;;;;;;4978354;28;20373;-59
2022/01/08 06:43:43;;;;;;;25.52;16.13;;;5.30;63.00;;;;;;4974252;28;20022;-59
2022/01/08 06:46:10;;;;;;;31.48;16.10;;;5.30;63.10;;;;;;4974611;28;20380;-59
2022/01/08 06:48:37;;;;;;;27.20;14.63;;;5.30;63.10;;;;;;4973614;28;20030;-59
2022/01/08 06:51:03;;;;;;;32.60;14.65;;;5.30;63.10;;;;;;4973861;28;20038;-57
2022/01/08 06:53:29;;;;;;;28.88;13.57;;;5.20;63.00;;;;;;4978170;28;20033;-57
2022/01/08 06:55:55;;;;;;;30.45;14.43;;;5.20;63.00;;;;;;4977264;28;20033;-60
2022/01/08 06:58:24;;;;;;;31.73;13.68;;;5.20;63.10;;;;;;4972776;28;20026;-59
2022/01/08 07:00:50;;;;;;;27.13;14.23;;;5.20;63.20;;;;;;4972886;28;20049;-59
2022/01/08 07:03:17;;;;;;;30.27;13.68;;;5.20;63.20;;;;;;4973302;28;20038;-60
2022/01/08 07:05:43;;;;;;;32.95;14.15;;;5.20;63.20;;;;;;4973478;28;20034;-57
2022/01/08 07:08:10;;;;;;;25.42;12.30;;;5.20;63.30;;;;;;4972133;28;20505;-57
2022/01/08 07:10:37;;;;;;;33.67;13.52;;;5.10;63.20;;;;;;4958661;28;20034;-58
2022/01/08 07:13:03;;;;;;;27.85;13.35;;;5.10;63.30;;;;;;4973519;28;20536;-60
2022/01/08 07:15:30;;;;;;;25.00;12.23;;;5.10;63.30;;;;;;4972347;28;20038;-60
2022/01/08 07:17:56;;;;;;;28.40;12.73;;;5.10;63.40;;;;;;4974052;28;20086;-60
2022/01/08 07:20:22;;;;;;;26.90;12.75;;;5.10;63.50;;;;;;4971655;28;20482;-59
2022/01/08 07:22:49;;;;;;;24.25;11.32;;;5.10;63.60;;;;;;4978438;28;20034;-57
2022/01/08 07:25:15;;;;;;;23.98;12.15;;;5.10;63.60;;;;;;4975098;28;20030;-59
2022/01/08 07:27:42;;;;;;;24.40;12.40;;;5.10;63.70;;;;;;4973725;28;20049;-57
2022/01/08 07:30:10;;;;;;;22.63;11.35;;;5.10;63.70;;;;;;4977569;28;20402;-58
2022/01/08 07:32:47;;;;;;;25.00;12.27;;;5.10;63.60;;;;;;4976376;28;20494;-58
2022/01/08 07:35:15;;;;;;;25.15;10.82;;;5.10;63.60;;;;;;4977339;28;20038;-60
2022/01/08 07:37:43;;;;;;;24.88;11.48;;;5.10;63.50;;;;;;4976455;28;20429;-59
2022/01/08 07:40:12;;;;;;;23.73;11.07;;;5.10;63.50;;;;;;4921723;28;20046;-58
2022/01/08 07:42:38;;;;;;;20.95;10.30;;;5.10;63.50;;;;;;4955777;28;20027;-59
2022/01/08 07:45:06;;;;;;;21.17;9.95;;;5.10;63.60;;;;;;4954668;28;20491;-59
2022/01/08 07:47:33;;;;;;;20.08;9.90;;;5.10;63.80;;;;;;4954592;28;20724;-59
2022/01/08 07:49:59;;;;;;;18.98;9.40;;;5.10;63.90;;;;;;4955208;28;20035;-58
2022/01/08 07:52:25;;;;;;;25.27;9.27;;;5.20;64.00;;;;;;4951125;28;20031;-60
2022/01/08 07:54:51;;;;;;;22.95;8.40;;;5.20;63.90;;;;;;4956696;28;20027;-56
2022/01/08 07:57:17;;;;;;;20.75;8.73;;;5.20;63.80;;;;;;4955870;28;20027;-59
2022/01/08 07:59:44;;;;;;;18.25;8.80;;;5.30;63.70;;;;;;4957729;28;20027;-59
2022/01/08 08:02:10;;;;;;;17.52;8.48;;;5.30;63.50;;;;;;4956361;28;20066;-59
2022/01/08 08:04:37;;;;;;;33.55;12.93;;;5.30;63.40;;;;;;4958091;28;20038;-59
2022/01/08 08:07:04;;;;;;;30.50;12.20;;;5.30;63.30;;;;;;4956405;28;20031;-59
2022/01/08 08:09:31;;;;;;;20.80;8.52;;;5.30;63.30;;;;;;4952713;28;20034;-58
2022/01/08 08:11:57;;;;;;;24.45;8.40;;;5.30;63.30;;;;;;4955377;28;20026;-59
2022/01/08 08:14:23;;;;;;;20.75;8.95;;;5.30;63.30;;;;;;4958572;28;20042;-59
2022/01/08 08:16:50;;;;;;;18.95;8.07;;;5.40;63.20;;;;;;4958247;28;20567;-59
2022/01/08 08:19:16;;;;;;;21.40;7.65;;;5.40;63.10;;;;;;4955110;28;20027;-59
2022/01/08 08:21:43;;;;;;;16.75;6.95;;;5.40;62.90;;;;;;4953344;28;20034;-60
2022/01/08 08:24:09;;;;;;;16.00;7.10;;;5.40;62.80;;;;;;4952863;28;20116;-59
2022/01/08 08:26:38;;;;;;;17.02;8.43;;;5.40;62.70;;;;;;4955165;28;20306;-57
2022/01/08 08:29:04;;;;;;;18.52;8.43;;;5.40;62.70;;;;;;4956131;28;20038;-57
2022/01/08 08:31:31;;;;;;;20.05;8.70;;;5.40;62.70;;;;;;4957461;28;20046;-57
2022/01/08 08:33:57;;;;;;;18.60;8.90;;;5.40;62.90;;;;;;4958578;28;20042;-57
2022/01/08 08:36:23;;;;;;;20.63;7.55;;;5.40;63.00;;;;;;4955972;28;20467;-59
2022/01/08 08:38:50;;;;;;;16.83;6.55;;;5.40;63.00;;;;;;4968871;28;20069;-59
2022/01/08 08:41:16;;;;;;;15.85;6.03;;;5.40;63.00;;;;;;4958622;28;20027;-59
2022/01/08 08:43:42;;;;;;;17.00;6.03;;;5.40;63.10;;;;;;4961495;28;20071;-57
2022/01/08 08:46:08;;;;;;;13.93;5.20;;;5.50;63.20;;;;;;4956926;28;20030;-60
2022/01/08 08:48:35;;;;;;;19.77;5.22;;;5.60;63.20;;;;;;4954040;28;20038;-59
2022/01/08 08:51:01;;;;;;;14.30;4.68;;;5.60;63.10;;;;;;4956927;28;20035;-59
2022/01/08 08:53:27;;;;;;;9.93;4.47;;;5.60;63.00;;;;;;4956141;28;20042;-59
2022/01/08 08:55:53;;;;;;;18.98;5.30;;;5.70;63.60;;;;;;4957414;28;20382;-58
2022/01/08 08:58:19;;;;;;;20.20;5.95;;;5.70;62.90;;;;;;4959014;28;20391;-60
2022/01/08 09:00:46;;;;;;;13.20;4.85;;;5.80;62.80;;;;;;4959023;28;20027;-59
2022/01/08 09:03:12;;;;;;;13.55;4.90;;;5.80;62.50;;;;;;4956751;28;20495;-59
2022/01/08 09:05:39;;;;;;;9.25;4.70;;;5.80;62.30;;;;;;4961158;28;20050;-59
2022/01/08 09:08:05;;;;;;;14.73;5.07;;;5.90;62.20;;;;;;4958359;28;20035;-59
2022/01/08 09:10:33;;;;;;;12.13;5.03;;;5.90;62.10;;;;;;4954124;28;20023;-59
2022/01/08 09:12:59;;;;;;;14.95;5.22;;;5.90;61.90;;;;;;4959655;28;20023;-56
2022/01/08 09:15:26;;;;;;;18.27;7.20;;;5.90;61.90;;;;;;4957364;28;20023;-59
2022/01/08 09:17:56;;;;;;;14.88;5.93;;;5.90;61.70;;;;;;4954892;28;20030;-57
2022/01/08 09:20:27;;;;;;;13.23;5.45;;;5.90;61.50;;;;;;4961456;28;20026;-59
2022/01/08 09:22:53;;;;;;;13.00;5.53;;;5.90;61.30;;;;;;4960139;28;20035;-59
2022/01/08 09:25:20;;;;;;;18.63;6.18;;;6.00;61.40;;;;;;4958477;28;20027;-59
2022/01/08 09:27:46;;;;;;;10.90;4.13;;;6.00;61.40;;;;;;4956304;28;20025;-59
2022/01/08 09:30:13;;;;;;;13.40;4.95;;;6.00;61.30;;;;;;4958905;28;20027;-59
2022/01/08 09:32:42;;;;;;;11.80;4.25;;;6.00;61.10;;;;;;4958759;28;20162;-57
2022/01/08 09:35:08;;;;;;;13.93;5.50;;;6.00;60.80;;;;;;4958518;28;20054;-59
2022/01/08 09:37:37;;;;;;;13.98;5.75;;;6.00;60.70;;;;;;4963641;28;20053;-59
2022/01/08 09:40:06;;;;;;;14.57;5.10;;;6.00;60.80;;;;;;4974262;28;20053;-59
2022/01/08 09:42:32;;;;;;;10.63;4.60;;;6.00;60.70;;;;;;4971511;28;20022;-59
2022/01/08 09:44:59;;;;;;;17.08;6.00;;;6.00;60.70;;;;;;4973740;28;20050;-59
2022/01/08 09:47:25;;;;;;;15.70;4.75;;;6.10;60.70;;;;;;4972091;28;20476;-59
2022/01/08 09:49:51;;;;;;;11.52;4.32;;;6.10;60.70;;;;;;4976388;28;20506;-60
2022/01/08 09:52:17;;;;;;;14.73;4.43;;;6.10;60.60;;;;;;4974491;28;20031;-60
2022/01/08 09:54:43;;;;;;;12.05;4.55;;;6.10;60.50;;;;;;4974480;28;20045;-57
2022/01/08 09:57:10;;;;;;;11.43;3.80;;;6.10;61.20;;;;;;4967948;28;20074;-59
2022/01/08 09:59:36;;;;;;;11.70;4.10;;;6.10;61.10;;;;;;4975914;28;20038;-59
2022/01/08 10:02:03;;;;;;;11.55;4.55;;;6.20;61.10;;;;;;4973357;28;20636;-59
2022/01/08 10:04:35;;;;;;;13.77;4.40;;;6.20;60.40;;;;;;4978085;28;20026;-57
2022/01/08 10:07:22;;;;;;;17.48;5.07;;;6.30;60.10;;;;;;4973143;28;20065;-59
2022/01/08 10:10:10;;;;;;;10.38;4.47;;;6.30;59.90;;;;;;4980881;28;20515;-59
2022/01/08 10:12:44;;;;;;;11.45;4.00;;;6.30;59.90;;;;;;4978746;28;20037;-59
2022/01/08 10:18:00;;;;;;;8.63;3.65;;;6.40;59.70;;;;;;4972021;28;20041;-59
2022/01/08 10:20:29;;;;;;;17.70;4.57;;;6.40;59.70;;;;;;4972533;28;20034;-57
2022/01/08 10:23:12;;;;;;;11.68;3.90;;;6.40;59.60;;;;;;4975603;28;20030;-57
2022/01/08 10:25:53;;;;;;;9.32;3.55;;;6.40;59.50;;;;;;4978254;28;20033;-59
2022/01/08 10:28:35;;;;;;;11.10;4.18;;;6.40;59.40;;;;;;4976868;28;20498;-59
2022/01/08 10:31:15;;;;;;;11.32;4.65;;;6.50;59.30;;;;;;4974974;28;20038;-57
2022/01/08 10:33:45;;;;;;;16.92;4.38;;;6.50;59.20;;;;;;4978587;28;20045;-59
2022/01/08 10:36:12;;;;;;;7.32;3.58;;;6.50;59.20;;;;;;4976724;28;20038;-59
2022/01/08 10:38:39;;;;;;;11.48;3.97;;;6.50;59.20;;;;;;4976885;28;20042;-56
2022/01/08 10:41:14;;;;;;;10.52;4.38;;;6.60;59.00;;;;;;4973543;28;20042;-56
2022/01/08 10:43:41;;;;;;;18.20;4.10;;;6.50;58.80;;;;;;4974145;28;20042;-57
2022/01/08 10:46:13;;;;;;;22.33;4.05;;;6.60;59.00;;;;;;4969008;28;20045;-59
2022/01/08 10:48:46;;;;;;;17.35;4.07;;;6.60;58.80;;;;;;4966190;28;20046;-60
2022/01/08 10:51:19;;;;;;;13.70;4.00;;;6.60;58.70;;;;;;4971768;28;20035;-58
2022/01/08 10:53:54;;;;;;;14.18;3.67;;;6.60;58.70;;;;;;4959013;28;20039;-59
2022/01/08 10:56:32;;;;;;;14.10;3.75;;;6.70;58.60;;;;;;4979424;28;20030;-59
2022/01/08 10:59:03;;;;;;;11.13;4.13;;;6.70;58.50;;;;;;4974458;28;20034;-57
2022/01/08 11:01:37;;;;;;;12.63;4.13;;;6.70;58.50;;;;;;4976471;28;20033;-57
2022/01/08 11:04:05;;;;;;;7.90;3.67;;;6.70;58.30;;;;;;4979860;28;20395;-55
2022/01/08 11:06:32;;;;;;;20.70;4.55;;;6.70;58.40;;;;;;4973789;28;20038;-59
2022/01/08 11:09:00;;;;;;;12.07;4.00;;;6.70;58.40;;;;;;4974567;28;20042;-56
2022/01/08 11:11:30;;;;;;;10.93;4.32;;;6.70;58.30;;;;;;4976284;28;20038;-59
2022/01/08 11:14:07;;;;;;;9.25;3.88;;;6.70;58.30;;;;;;4979742;28;20490;-59
2022/01/08 11:16:35;;;;;;;14.80;5.03;;;6.70;58.40;;;;;;4943423;28;20031;-56
2022/01/08 11:19:03;;;;;;;11.20;3.85;;;6.80;58.50;;;;;;4975733;28;20026;-57
2022/01/08 11:21:31;;;;;;;10.57;3.47;;;6.80;58.50;;;;;;4977862;28;20498;-59
2022/01/08 11:23:59;;;;;;;11.93;4.60;;;6.80;58.40;;;;;;4979005;28;20030;-58
2022/01/08 11:26:26;;;;;;;16.65;4.93;;;6.80;58.40;;;;;;4978984;28;20341;-59
2022/01/08 11:28:59;;;;;;;8.82;4.03;;;6.80;58.40;;;;;;4956110;28;20038;-58
2022/01/08 11:31:30;;;;;;;8.82;3.67;;;6.90;58.40;;;;;;4949125;28;20595;-57
2022/01/08 11:34:02;;;;;;;11.95;3.95;;;6.90;58.50;;;;;;4977268;28;20398;-57
2022/01/08 11:36:30;;;;;;;8.55;3.58;;;6.90;58.40;;;;;;4975536;28;20926;-57
2022/01/08 11:38:57;;;;;;;12.00;4.15;;;6.90;58.40;;;;;;4958060;28;20050;-56
2022/01/08 11:41:24;;;;;;;13.85;3.35;;;6.90;58.30;;;;;;4976616;28;20034;-58
2022/01/08 11:43:52;;;;;;;15.13;3.78;;;6.90;58.20;;;;;;4975732;28;20026;-57
2022/01/08 11:46:18;;;;;;;11.23;4.05;;;7.00;58.90;;;;;;4976280;28;20045;-59
2022/01/08 11:48:49;;;;;;;9.18;4.75;;;7.00;58.50;;;;;;4975054;28;20035;-57
2022/01/08 11:51:23;;;;;;;9.50;3.92;;;7.00;58.40;;;;;;4969832;28;20030;-58
2022/01/08 11:53:51;;;;;;;11.15;3.75;;;7.00;58.30;;;;;;4977228;28;20402;-58
2022/01/08 11:56:28;;;;;;;9.52;3.75;;;7.00;58.30;;;;;;4982427;28;20031;-56
2022/01/08 11:59:11;;;;;;;10.93;3.75;;;7.10;58.20;;;;;;4972961;28;20058;-56
2022/01/08 12:01:40;;;;;;;15.32;4.22;;;7.10;58.00;;;;;;4960825;28;20038;-58
2022/01/08 12:04:23;;;;;;;10.27;3.30;;;7.10;58.20;;;;;;4974231;28;20073;-59
2022/01/08 12:06:49;;;;;;;13.10;3.72;;;7.10;58.30;;;;;;4982439;28;20073;-57
2022/01/08 12:09:26;;;;;;;8.00;3.50;;;7.10;58.20;;;;;;4975705;28;20034;-56
2022/01/08 12:12:02;;;;;;;5.97;2.75;;;7.20;58.10;;;;;;4963938;28;20029;-57
2022/01/08 12:14:46;;;;;;;7.38;3.13;;;7.20;58.00;;;;;;4981104;28;20030;-57
2022/01/08 12:17:14;;;;;;;7.03;3.25;;;7.20;57.60;;;;;;4974875;28;20034;-57
2022/01/08 12:19:50;;;;;;;9.52;3.25;;;7.20;57.80;;;;;;4979094;28;20035;-59
2022/01/08 12:22:16;;;;;;;8.27;3.45;;;7.20;57.70;;;;;;4981029;28;20037;-57
2022/01/08 12:24:43;;;;;;;9.57;2.97;;;7.20;57.70;;;;;;4977845;28;20045;-56
2022/01/08 12:27:40;;;;;;;8.75;2.72;;;7.20;57.80;;;;;;4978585;28;20046;-59
2022/01/08 12:30:15;;;;;;;8.82;2.78;;;7.30;57.50;;;;;;4978594;28;20050;-56
2022/01/08 12:32:46;;;;;;;5.20;2.70;;;7.30;57.40;;;;;;4979176;28;20856;-57
2022/01/08 12:35:15;;;;;;;9.02;3.05;;;7.30;57.40;;;;;;4982133;28;20407;-57
2022/01/08 12:37:44;;;;;;;9.40;3.05;;;7.30;57.20;;;;;;4978307;28;20043;-57
2022/01/08 12:40:13;;;;;;;9.05;3.05;;;7.30;57.10;;;;;;4982721;28;20375;-58
2022/01/08 12:42:44;;;;;;;10.68;3.60;;;7.30;57.10;;;;;;4981452;28;20035;-58
2022/01/08 12:45:20;;;;;;;10.60;2.75;;;7.40;57.00;;;;;;4982318;28;20037;-57
2022/01/08 12:48:00;;;;;;;15.07;4.03;;;7.40;57.00;;;;;;4960886;28;20038;-58
2022/01/08 12:50:53;;;;;;;9.30;3.58;;;7.40;57.10;;;;;;4978022;28;20523;-59
2022/01/08 12:53:27;;;;;;;9.43;3.05;;;7.40;57.10;;;;;;4981283;28;20034;-56
2022/01/08 12:55:56;;;;;;;10.90;3.90;;;7.40;57.00;;;;;;4964947;28;20030;-59
2022/01/08 12:58:34;;;;;;;7.80;3.30;;;7.40;56.90;;;;;;4977413;28;20034;-57
2022/01/08 13:01:09;;;;;;;7.43;3.47;;;7.40;56.90;;;;;;4981883;28;20507;-57
2022/01/08 13:03:51;;;;;;;11.48;4.00;;;7.40;57.00;;;;;;4962520;28;20047;-57
2022/01/08 13:06:17;;;;;;;11.55;3.60;;;7.40;56.90;;;;;;4974344;28;20030;-57
2022/01/08 13:08:46;;;;;;;9.35;3.47;;;7.40;56.90;;;;;;4978112;28;20030;-58
2022/01/08 13:11:18;;;;;;;13.18;5.05;;;7.40;56.90;;;;;;4979035;28;20041;-58
2022/01/08 13:13:45;;;;;;;11.93;3.78;;;7.40;56.80;;;;;;4980802;28;20408;-59
2022/01/08 13:16:17;;;;;;;17.70;4.05;;;7.40;56.90;;;;;;4979410;28;20022;-58